Mohawk, Arizona
Current Conditions -  °F | °C
As of 1:57 PM on Wednesday 26 Nov 2014 (Local Time) from KNYL Reporting Station
Clear Clear  
Wind Chill: 77°   Ceiling: Unl
Heat Index: 77°   Visibility: 10mi
Dew Point: 14°   Wind: 13mph
Humidity: 9%   Direction: 350°N
Pressure: 30.2"   Gusts: NA
Location:  32.73°N, 113.75°W
Report Text: KNYL 262057Z 35011KT 10SM CLR 25/M10 A3020 RMK AO2 SLP224 T02501100 58034
Loading
Personal Weather Stations






























Interactive Weather Map New forecast layout! Learn more

10-Day Weather Forecast

Advertisements
Track Severe Weather on mobile